KMOX/MOX METAR and TAF weather

Enter ICAO airport designator
Station Type Date Time Source
KMOX METAR 2018/12/15 23:15 UTC NOAA

KMOX 152315Z AUTO 16015KT 10SM CLR 03/M02 A2985 RMK AO2


Station Type Date Time Source
KMOX Decoded METAR 2018/12/15 23:15 UTC NOAA

Morris, Morris Municipal Airport, MN, United States (KMOX) 45-34N 095-58W
Dec 15, 2018 - 06:15 PM EST / 2018.12.15 2315 UTC
Wind: from the SSE (160 degrees) at 17 MPH (15 KT):0
Visibility: 10 mile(s):0
Sky conditions: clear
Temperature: 37 F (3 C)
Dew Point: 28 F (-2 C)
Relative Humidity: 69%
Pressure (altimeter): 29.85 in. Hg (1010 hPa)
ob: KMOX 152315Z AUTO 16015KT 10SM CLR 03/M02 A2985 RMK AO2
cycle: 23

Station Type Date Time Source
KMOX TAF UTC NOAA

Error!


Example: see airport list